Time;durP1;ratioP1;P1;durP2;ratioP2;P2;SDS_P1;SDS_P2;PMS_P1;PMS_P2;Temp;Humidity;BMP_temperature;BMP_pressure;BME280_temperature;BME280_humidity;BME280_pressure;Samples;Min_cycle;Max_cycle;Signal;HPM_P1;HPM_P2
2023/10/18 00:00:23;;;;;;;3.78;1.33;;;9.80;99.90;;;;;;5004670;28;20050;-65
2023/10/18 00:02:53;;;;;;;9.32;1.70;;;9.80;99.90;;;;;;5000919;28;20045;-64
2023/10/18 00:05:22;;;;;;;10.65;2.17;;;9.80;99.90;;;;;;5006291;28;20050;-63
2023/10/18 00:07:51;;;;;;;4.10;1.08;;;9.80;99.90;;;;;;5002870;28;20064;-63
2023/10/18 00:10:20;;;;;;;4.38;1.92;;;9.80;99.90;;;;;;4993772;28;20598;-65
2023/10/18 00:12:48;;;;;;;7.05;2.50;;;9.80;99.90;;;;;;5008300;28;20045;-62
2023/10/18 00:15:15;;;;;;;10.57;2.38;;;9.80;99.90;;;;;;5006518;28;20743;-62
2023/10/18 00:17:43;;;;;;;9.98;2.25;;;9.80;99.90;;;;;;5002111;28;20042;-65
2023/10/18 00:20:15;;;;;;;6.60;1.40;;;9.80;99.90;;;;;;5003978;28;20062;-63
2023/10/18 00:22:43;;;;;;;5.85;1.67;;;9.80;99.90;;;;;;4995185;28;20047;-64
2023/10/18 00:25:11;;;;;;;3.17;1.30;;;9.70;99.90;;;;;;4997816;28;20077;-64
2023/10/18 00:27:39;;;;;;;5.68;1.63;;;9.70;99.90;;;;;;5001495;28;20073;-62
2023/10/18 00:30:07;;;;;;;6.45;1.35;;;9.70;99.90;;;;;;5005232;28;20694;-63
2023/10/18 00:32:35;;;;;;;10.35;1.80;;;9.70;99.90;;;;;;5004568;28;20042;-62
2023/10/18 00:35:21;;;;;;;8.00;1.98;;;9.70;99.90;;;;;;4995091;28;20464;-67
2023/10/18 00:37:50;;;;;;;5.50;1.25;;;9.70;99.90;;;;;;5000864;28;20037;-62
2023/10/18 00:40:32;;;;;;;7.95;1.52;;;9.70;99.90;;;;;;5001121;28;20077;-66
2023/10/18 00:43:09;;;;;;;7.10;1.48;;;9.60;99.90;;;;;;5004143;28;20076;-62
2023/10/18 00:45:43;;;;;;;12.23;1.88;;;9.60;99.90;;;;;;5010289;28;20132;-62
2023/10/18 00:48:11;;;;;;;6.88;1.58;;;9.60;99.90;;;;;;5006171;28;20050;-62
2023/10/18 00:50:43;;;;;;;5.70;1.50;;;9.50;99.90;;;;;;4988463;28;20152;-62
2023/10/18 00:53:19;;;;;;;7.50;1.75;;;9.50;99.90;;;;;;5006211;28;20543;-61
2023/10/18 00:55:57;;;;;;;5.80;1.50;;;9.50;99.90;;;;;;4979025;28;20528;-62
2023/10/18 00:58:29;;;;;;;6.70;1.15;;;9.50;99.90;;;;;;4984703;28;20045;-64
2023/10/18 01:00:58;;;;;;;13.80;1.75;;;9.50;99.90;;;;;;4979026;28;20054;-64
2023/10/18 01:03:29;;;;;;;3.83;1.33;;;9.50;99.90;;;;;;4984999;28;20084;-66
2023/10/18 01:06:12;;;;;;;11.85;1.67;;;9.50;99.90;;;;;;4982860;28;20066;-64
2023/10/18 01:08:40;;;;;;;5.05;1.50;;;9.50;99.90;;;;;;4985235;28;20046;-62
2023/10/18 01:11:09;;;;;;;9.75;1.45;;;9.40;99.90;;;;;;4985670;28;20137;-61
2023/10/18 01:13:42;;;;;;;13.85;2.38;;;9.40;99.90;;;;;;4968991;28;20049;-62
2023/10/18 01:16:23;;;;;;;10.88;3.20;;;9.40;99.90;;;;;;4982383;28;20082;-61
2023/10/18 01:18:53;;;;;;;8.98;1.92;;;9.40;99.90;;;;;;4962068;28;20452;-61
2023/10/18 01:21:21;;;;;;;5.75;2.55;;;9.40;99.90;;;;;;4977114;28;20058;-64
2023/10/18 01:23:53;;;;;;;2.88;1.13;;;9.40;99.90;;;;;;4978595;28;20069;-63
2023/10/18 01:26:25;;;;;;;6.55;1.35;;;9.30;99.90;;;;;;4983543;28;20046;-61
2023/10/18 01:28:53;;;;;;;10.85;2.05;;;9.40;99.90;;;;;;4973656;28;20059;-61
2023/10/18 01:31:21;;;;;;;3.67;1.25;;;9.30;99.90;;;;;;4985378;28;20042;-65
2023/10/18 01:33:50;;;;;;;3.60;1.20;;;9.30;99.90;;;;;;4979710;28;20053;-61
2023/10/18 01:36:20;;;;;;;2.20;1.27;;;9.30;99.90;;;;;;4979407;28;20786;-62
2023/10/18 01:38:49;;;;;;;4.95;0.93;;;9.30;99.90;;;;;;4983715;28;20047;-67
2023/10/18 01:41:25;;;;;;;11.98;2.50;;;9.20;99.90;;;;;;4977246;28;20512;-65
2023/10/18 01:44:10;;;;;;;13.30;2.55;;;9.20;99.90;;;;;;4973753;28;20058;-61
2023/10/18 01:46:46;;;;;;;7.18;1.23;;;9.20;99.90;;;;;;4968804;28;20053;-62
2023/10/18 01:49:16;;;;;;;9.27;2.63;;;9.20;99.90;;;;;;4962880;28;20047;-63
2023/10/18 01:51:46;;;;;;;4.55;1.60;;;9.20;99.90;;;;;;4981904;28;20400;-64
2023/10/18 01:54:15;;;;;;;9.35;1.85;;;9.20;99.90;;;;;;4989357;28;20161;-64
2023/10/18 01:56:46;;;;;;;5.20;1.45;;;9.20;99.90;;;;;;5000231;28;20041;-62
2023/10/18 01:59:16;;;;;;;4.50;1.65;;;9.20;99.90;;;;;;4988249;28;20057;-62
2023/10/18 02:01:51;;;;;;;4.60;1.40;;;9.20;99.90;;;;;;4998678;28;20073;-63
2023/10/18 02:04:25;;;;;;;6.25;1.90;;;9.20;99.90;;;;;;4993979;28;20045;-62
2023/10/18 02:07:17;;;;;;;7.45;1.73;;;9.20;99.90;;;;;;4999938;28;20061;-61
2023/10/18 02:09:48;;;;;;;7.55;2.40;;;9.20;99.90;;;;;;4992354;28;20046;-64
2023/10/18 02:12:19;;;;;;;11.30;2.80;;;9.10;99.90;;;;;;4985256;28;20060;-64
2023/10/18 02:14:51;;;;;;;15.60;3.17;;;9.10;99.90;;;;;;4989784;28;20110;-64
2023/10/18 02:17:18;;;;;;;7.20;2.42;;;9.10;99.90;;;;;;5001752;28;20046;-62
2023/10/18 02:19:46;;;;;;;8.60;1.88;;;9.10;99.90;;;;;;5002970;28;20042;-69
2023/10/18 02:22:13;;;;;;;3.25;1.00;;;9.10;99.90;;;;;;4995234;28;20061;-61
2023/10/18 02:24:43;;;;;;;5.57;2.25;;;9.10;99.90;;;;;;4998655;28;20065;-63
2023/10/18 02:27:15;;;;;;;3.15;1.35;;;9.10;99.90;;;;;;5010117;28;20057;-62
2023/10/18 02:29:44;;;;;;;3.35;1.15;;;9.10;99.90;;;;;;5006632;28;20125;-66
2023/10/18 02:35:09;;;;;;;4.05;1.10;;;9.00;99.90;;;;;;4984849;28;20050;-62
2023/10/18 02:37:36;;;;;;;4.55;1.05;;;9.00;99.90;;;;;;4989572;28;20054;-64
2023/10/18 02:40:09;;;;;;;2.67;0.90;;;9.00;99.90;;;;;;5002723;28;20038;-62
2023/10/18 02:42:37;;;;;;;9.13;1.52;;;9.00;99.90;;;;;;5003463;28;20049;-61
2023/10/18 02:45:12;;;;;;;2.38;1.10;;;9.00;99.90;;;;;;4994511;28;20081;-62
2023/10/18 02:47:40;;;;;;;4.63;1.38;;;9.00;99.90;;;;;;5001541;28;20096;-65
2023/10/18 02:50:08;;;;;;;3.65;1.60;;;9.00;99.90;;;;;;4996689;28;20050;-62
2023/10/18 02:52:35;;;;;;;4.65;2.47;;;8.90;99.90;;;;;;4991889;28;20050;-62
2023/10/18 02:55:02;;;;;;;3.85;0.77;;;8.90;99.90;;;;;;5002988;28;20658;-62
2023/10/18 02:57:32;;;;;;;5.43;1.25;;;8.90;99.90;;;;;;5005948;28;20041;-62
2023/10/18 03:00:09;;;;;;;3.10;2.10;;;8.90;99.90;;;;;;4993111;28;20604;-62
2023/10/18 03:02:38;;;;;;;3.90;1.30;;;8.90;99.90;;;;;;5003466;28;20103;-61
2023/10/18 03:05:06;;;;;;;5.78;1.30;;;8.90;99.90;;;;;;4992532;28;20100;-63
2023/10/18 03:07:34;;;;;;;4.32;0.95;;;8.90;99.90;;;;;;5005470;28;20137;-62
2023/10/18 03:10:11;;;;;;;4.03;1.02;;;8.90;99.90;;;;;;4987101;28;20058;-64
2023/10/18 03:12:38;;;;;;;4.00;1.30;;;8.90;99.90;;;;;;5006010;28;20045;-63
2023/10/18 03:15:52;;;;;;;4.85;3.15;;;8.90;99.90;;;;;;5004375;28;20042;-62
2023/10/18 03:18:02;;;;;;;2.72;1.02;;;8.90;99.90;;;;;;4996441;28;20058;-64
2023/10/18 03:20:37;;;;;;;1.50;0.63;;;8.80;99.90;;;;;;4999606;28;20038;-61
2023/10/18 03:23:04;;;;;;;4.18;0.60;;;8.80;99.90;;;;;;5004438;28;20054;-61
2023/10/18 03:25:31;;;;;;;3.63;0.90;;;8.80;99.90;;;;;;5000546;28;20066;-62
2023/10/18 03:28:04;;;;;;;3.58;0.77;;;8.80;99.90;;;;;;5002625;28;20082;-63
2023/10/18 03:30:44;;;;;;;7.22;0.88;;;8.80;99.90;;;;;;4992868;28;20137;-65
2023/10/18 03:33:12;;;;;;;1.98;1.38;;;8.80;99.90;;;;;;5004797;28;20435;-62
2023/10/18 03:35:41;;;;;;;2.42;0.95;;;8.80;99.90;;;;;;4982105;28;20042;-62
2023/10/18 03:38:17;;;;;;;1.55;1.00;;;8.80;99.90;;;;;;5007371;28;20467;-63
2023/10/18 03:40:57;;;;;;;2.85;1.00;;;8.80;99.90;;;;;;4997486;28;20046;-61
2023/10/18 03:43:32;;;;;;;5.13;1.52;;;8.80;99.90;;;;;;4999715;28;20105;-62
2023/10/18 03:48:39;;;;;;;6.75;2.10;;;8.80;99.90;;;;;;5006038;28;20038;-62
2023/10/18 03:51:07;;;;;;;2.50;0.80;;;8.80;99.90;;;;;;5006512;28;20050;-63
2023/10/18 03:53:37;;;;;;;2.78;0.90;;;8.80;99.90;;;;;;4990607;28;20772;-63
2023/10/18 03:56:06;;;;;;;3.25;0.88;;;8.80;99.90;;;;;;4995026;28;20042;-62
2023/10/18 03:58:35;;;;;;;2.88;0.73;;;8.80;99.90;;;;;;4994696;28;20038;-69
2023/10/18 04:01:02;;;;;;;3.75;0.85;;;8.80;99.90;;;;;;4969877;28;20042;-69
2023/10/18 04:03:29;;;;;;;2.55;1.10;;;8.80;99.90;;;;;;5008598;28;20092;-64
2023/10/18 04:06:08;;;;;;;1.92;1.00;;;8.80;99.90;;;;;;4977538;28;20408;-69
2023/10/18 04:08:36;;;;;;;1.15;1.00;;;8.80;99.90;;;;;;4971424;28;20046;-69
2023/10/18 04:11:04;;;;;;;4.03;1.05;;;8.80;99.90;;;;;;4973847;28;20041;-70
2023/10/18 04:13:31;;;;;;;1.85;0.80;;;8.80;99.90;;;;;;4968900;28;20748;-70
2023/10/18 04:16:11;;;;;;;3.03;1.00;;;8.80;99.90;;;;;;4972799;28;20042;-62
2023/10/18 04:18:41;;;;;;;1.55;0.65;;;8.80;99.90;;;;;;4970638;28;20052;-68
2023/10/18 04:21:15;;;;;;;3.22;1.42;;;8.70;99.90;;;;;;4981587;28;20038;-69
2023/10/18 04:23:46;;;;;;;3.90;0.90;;;8.80;99.90;;;;;;4973430;28;20065;-70
2023/10/18 04:26:18;;;;;;;2.33;1.20;;;8.70;99.90;;;;;;4977926;28;20125;-68
2023/10/18 04:28:46;;;;;;;3.65;0.93;;;8.70;99.90;;;;;;5001303;28;20034;-62
2023/10/18 04:31:14;;;;;;;3.65;0.40;;;8.70;99.90;;;;;;5000003;28;20565;-64
2023/10/18 04:33:42;;;;;;;1.52;0.52;;;8.70;99.90;;;;;;5004609;28;20046;-64
2023/10/18 04:36:12;;;;;;;4.30;1.10;;;8.70;99.90;;;;;;5000385;28;20069;-62
2023/10/18 04:38:43;;;;;;;3.03;0.90;;;8.70;99.90;;;;;;5007943;28;20034;-64
2023/10/18 04:41:23;;;;;;;;;;;8.70;99.90;;;;;;4998593;28;20451;-63
2023/10/18 04:44:04;;;;;;;2.53;0.80;;;8.60;99.90;;;;;;5003600;28;20434;-62
2023/10/18 04:46:37;;;;;;;1.38;0.68;;;8.70;99.90;;;;;;5005694;28;20449;-62
2023/10/18 04:54:27;;;;;;;0.90;0.45;;;8.50;99.90;;;;;;5000679;28;20054;-64
2023/10/18 04:56:56;;;;;;;2.40;0.70;;;8.50;99.90;;;;;;5000102;28;20598;-63
2023/10/18 04:59:29;;;;;;;2.45;0.60;;;8.50;99.90;;;;;;5003478;28;20052;-65
2023/10/18 05:01:57;;;;;;;2.15;0.63;;;8.50;99.90;;;;;;4997234;28;20129;-62
2023/10/18 05:04:25;;;;;;;1.05;0.47;;;8.40;99.90;;;;;;4997206;28;20048;-68
2023/10/18 05:06:55;;;;;;;1.20;0.73;;;8.40;99.90;;;;;;5002110;28;20041;-62
2023/10/18 05:09:31;;;;;;;2.15;0.90;;;8.40;99.90;;;;;;5007150;28;20053;-63
2023/10/18 05:12:04;;;;;;;2.83;0.50;;;8.30;99.90;;;;;;5002629;28;20046;-68
2023/10/18 05:14:43;;;;;;;0.60;0.50;;;8.30;99.90;;;;;;5001140;28;20050;-65
2023/10/18 05:17:17;;;;;;;1.88;0.52;;;8.30;99.90;;;;;;4996370;28;20038;-62
2023/10/18 05:19:45;;;;;;;2.15;0.65;;;8.30;99.90;;;;;;5003326;28;20044;-62
2023/10/18 05:22:23;;;;;;;1.92;0.57;;;8.20;99.90;;;;;;5004413;28;20049;-61
2023/10/18 05:25:11;;;;;;;1.77;0.40;;;8.20;99.90;;;;;;5003053;28;20767;-62
2023/10/18 05:27:45;;;;;;;2.08;0.60;;;8.20;99.90;;;;;;5003326;28;20042;-61
2023/10/18 05:30:16;;;;;;;2.85;0.40;;;8.20;99.90;;;;;;5000142;28;20101;-62
2023/10/18 05:32:49;;;;;;;2.08;0.57;;;8.10;99.90;;;;;;5006565;28;20056;-62
2023/10/18 05:35:21;;;;;;;1.70;0.40;;;8.10;99.90;;;;;;4996714;28;20121;-66
2023/10/18 05:37:50;;;;;;;0.77;0.30;;;8.10;99.90;;;;;;5002741;28;20049;-63
2023/10/18 05:43:03;;;;;;;0.57;0.38;;;8.10;99.90;;;;;;4995003;28;20073;-62
2023/10/18 05:45:34;;;;;;;1.23;0.38;;;8.10;99.90;;;;;;4995730;28;20125;-63
2023/10/18 05:48:12;;;;;;;1.90;1.15;;;8.10;99.90;;;;;;4996190;28;20420;-64
2023/10/18 05:50:45;;;;;;;2.00;0.47;;;8.10;99.90;;;;;;5001512;28;20054;-64
2023/10/18 05:53:18;;;;;;;1.48;0.80;;;8.00;99.90;;;;;;5002419;28;20052;-61
2023/10/18 05:55:54;;;;;;;1.55;0.15;;;8.00;99.90;;;;;;5003992;28;20054;-63
2023/10/18 05:58:28;;;;;;;1.58;0.50;;;8.00;99.90;;;;;;4997615;28;20421;-63
2023/10/18 06:00:56;;;;;;;1.40;0.25;;;8.00;99.90;;;;;;5001013;28;20488;-62
2023/10/18 06:03:27;;;;;;;1.27;0.55;;;8.00;99.90;;;;;;5000117;28;20096;-65
2023/10/18 06:05:57;;;;;;;0.80;0.30;;;8.00;99.90;;;;;;4997249;28;20096;-63
2023/10/18 06:08:25;;;;;;;0.68;0.30;;;8.00;99.90;;;;;;5001559;28;20049;-62
2023/10/18 06:11:01;;;;;;;0.63;0.40;;;8.10;99.90;;;;;;4993561;28;20038;-63
2023/10/18 06:13:28;;;;;;;1.10;0.40;;;8.00;99.90;;;;;;4992133;28;20073;-62
2023/10/18 06:16:06;;;;;;;2.50;0.73;;;8.00;99.90;;;;;;4998497;28;20097;-62
2023/10/18 06:18:37;;;;;;;1.50;0.30;;;8.10;99.90;;;;;;5001031;28;20046;-66
2023/10/18 06:21:12;;;;;;;3.60;0.40;;;8.10;99.90;;;;;;5000024;28;20108;-62
2023/10/18 06:23:39;;;;;;;2.83;0.45;;;8.10;99.90;;;;;;4997956;28;20092;-63
2023/10/18 06:28:53;;;;;;;1.38;0.20;;;8.10;99.90;;;;;;5004068;28;20043;-61
2023/10/18 06:31:21;;;;;;;0.30;0.22;;;8.10;99.90;;;;;;5001109;28;20483;-65
2023/10/18 06:33:55;;;;;;;0.85;0.20;;;8.10;99.90;;;;;;5002592;28;20067;-63
2023/10/18 06:36:24;;;;;;;0.73;0.30;;;8.10;99.90;;;;;;4999237;28;20562;-61
2023/10/18 06:38:52;;;;;;;0.85;0.50;;;8.10;99.90;;;;;;4995690;28;20045;-63
2023/10/18 06:41:19;;;;;;;1.63;0.32;;;8.10;99.90;;;;;;4997173;28;20065;-63
2023/10/18 06:43:47;;;;;;;0.25;0.10;;;8.00;99.90;;;;;;4999949;28;20073;-61
2023/10/18 06:46:30;;;;;;;1.55;0.20;;;8.00;99.90;;;;;;5003029;28;20533;-63
2023/10/18 06:49:00;;;;;;;2.22;0.30;;;8.10;99.90;;;;;;5000098;28;20515;-66
2023/10/18 06:51:40;;;;;;;0.82;0.40;;;8.10;99.90;;;;;;4997602;28;20046;-62
2023/10/18 06:54:14;;;;;;;1.45;0.35;;;8.10;99.90;;;;;;4996143;28;20062;-64
2023/10/18 06:56:48;;;;;;;4.07;0.40;;;8.10;99.90;;;;;;4995415;28;20054;-63
2023/10/18 06:59:14;;;;;;;0.70;0.30;;;8.20;99.90;;;;;;5000581;28;20137;-61
2023/10/18 07:01:41;;;;;;;0.52;0.30;;;8.10;99.90;;;;;;5003910;28;20155;-63
2023/10/18 07:04:18;;;;;;;1.27;0.47;;;8.10;99.90;;;;;;4997773;28;20056;-63
2023/10/18 07:06:46;;;;;;;1.98;0.40;;;8.10;99.90;;;;;;4998734;28;20118;-62
2023/10/18 07:09:25;;;;;;;0.85;0.47;;;8.10;99.90;;;;;;5002050;28;20530;-61
2023/10/18 07:11:57;;;;;;;5.43;0.80;;;8.10;99.90;;;;;;5000082;28;20104;-62
2023/10/18 07:14:24;;;;;;;4.53;0.50;;;8.10;99.90;;;;;;5008606;28;20064;-64
2023/10/18 07:16:54;;;;;;;0.68;0.68;;;8.10;99.90;;;;;;5010048;28;20038;-64
2023/10/18 07:21:55;;;;;;;2.55;0.50;;;8.00;99.90;;;;;;5002585;28;20244;-65
2023/10/18 07:24:36;;;;;;;1.13;0.40;;;8.00;99.90;;;;;;5004299;28;20135;-64
2023/10/18 07:27:04;;;;;;;1.52;0.45;;;8.00;99.90;;;;;;5008613;28;20049;-66
2023/10/18 07:29:36;;;;;;;0.40;0.20;;;8.00;99.90;;;;;;5006735;28;20181;-64
2023/10/18 07:32:06;;;;;;;1.10;0.50;;;7.90;99.90;;;;;;5001616;28;20100;-61
2023/10/18 07:34:36;;;;;;;;;;;7.90;99.90;;;;;;5007867;28;20038;-62
2023/10/18 07:37:24;;;;;;;1.80;0.30;;;7.80;99.90;;;;;;5003180;28;20020;-62
2023/10/18 07:39:59;;;;;;;0.43;0.10;;;7.80;99.90;;;;;;5002322;28;20124;-61
2023/10/18 07:42:26;;;;;;;0.93;0.32;;;7.80;99.90;;;;;;5003080;28;20046;-67
2023/10/18 07:44:55;;;;;;;3.05;0.40;;;7.80;99.90;;;;;;5005317;28;20037;-62
2023/10/18 07:47:25;;;;;;;1.60;0.40;;;7.80;99.90;;;;;;4997302;28;20038;-63
2023/10/18 07:49:58;;;;;;;3.25;0.35;;;7.80;99.90;;;;;;5004096;28;20046;-62
2023/10/18 07:52:25;;;;;;;4.28;0.30;;;7.90;99.90;;;;;;5003234;28;20059;-67
2023/10/18 07:54:52;;;;;;;1.75;0.38;;;7.90;99.90;;;;;;5003052;28;20057;-66
2023/10/18 07:57:29;;;;;;;1.10;0.60;;;8.00;99.90;;;;;;5005149;28;20492;-63
2023/10/18 08:00:21;;;;;;;0.43;0.35;;;8.00;99.90;;;;;;4996891;28;20056;-64
2023/10/18 08:02:43;;;;;;;4.10;0.40;;;8.00;99.90;;;;;;5007459;28;20415;-62
2023/10/18 08:05:11;;;;;;;1.20;0.30;;;8.00;99.90;;;;;;5002711;28;20715;-64
2023/10/18 08:07:38;;;;;;;0.20;0.10;;;8.00;99.90;;;;;;4983048;28;20034;-60
2023/10/18 08:10:08;;;;;;;0.47;0.20;;;8.00;99.90;;;;;;5005157;28;20054;-62
2023/10/18 08:12:35;;;;;;;0.30;0.20;;;8.00;99.90;;;;;;5001297;28;20117;-63
2023/10/18 08:15:13;;;;;;;4.57;0.98;;;7.90;99.90;;;;;;4996773;28;20060;-62
2023/10/18 08:22:50;;;;;;;1.00;0.22;;;8.00;99.90;;;;;;5004546;28;20045;-64
2023/10/18 08:25:51;;;;;;;0.47;0.20;;;8.00;99.90;;;;;;4998653;28;20099;-62
2023/10/18 08:28:13;;;;;;;1.10;0.80;;;8.00;99.90;;;;;;4994562;28;20149;-62
2023/10/18 08:33:15;;;;;;;0.50;0.25;;;8.10;99.90;;;;;;5002982;28;20077;-62
2023/10/18 08:35:42;;;;;;;2.05;1.17;;;8.10;99.90;;;;;;5001638;28;20042;-63
2023/10/18 08:38:08;;;;;;;1.55;0.10;;;8.10;99.90;;;;;;4997002;28;20073;-62
2023/10/18 08:40:37;;;;;;;1.05;0.50;;;8.10;99.90;;;;;;5000141;28;20053;-63
2023/10/18 08:43:28;;;;;;;1.65;0.30;;;8.20;99.90;;;;;;5000770;28;20412;-61
2023/10/18 08:45:55;;;;;;;;;;;8.20;99.90;;;;;;5002205;28;20052;-61
2023/10/18 08:48:30;;;;;;;0.65;0.30;;;8.20;99.90;;;;;;5002173;28;19925;-64
2023/10/18 08:50:59;;;;;;;2.15;0.20;;;8.30;99.90;;;;;;4998757;28;20053;-65
2023/10/18 08:53:26;;;;;;;1.85;0.40;;;8.30;99.90;;;;;;4982311;28;20052;-62
2023/10/18 08:56:05;;;;;;;0.40;0.28;;;8.30;99.90;;;;;;5000588;28;20067;-63
2023/10/18 08:58:34;;;;;;;1.55;0.30;;;8.30;99.90;;;;;;5000459;28;20073;-61
2023/10/18 09:01:03;;;;;;;0.50;0.10;;;8.30;99.90;;;;;;5001231;28;20046;-66
2023/10/18 09:03:31;;;;;;;0.30;0.20;;;8.30;99.90;;;;;;5005437;28;20329;-64
2023/10/18 09:06:05;;;;;;;2.83;0.52;;;8.20;99.90;;;;;;4999528;28;20050;-62
2023/10/18 09:08:43;;;;;;;1.08;0.30;;;8.00;99.90;;;;;;5006716;28;20046;-62
2023/10/18 09:11:21;;;;;;;1.27;0.40;;;7.90;99.90;;;;;;5000270;28;20147;-62
2023/10/18 09:14:11;;;;;;;1.05;0.60;;;7.90;99.90;;;;;;5000091;28;20050;-65
2023/10/18 09:16:41;;;;;;;0.57;0.38;;;8.00;99.90;;;;;;5001498;28;20077;-62
2023/10/18 09:19:11;;;;;;;0.38;0.28;;;8.00;99.90;;;;;;4999677;28;20112;-61
2023/10/18 09:21:43;;;;;;;0.17;0.17;;;8.00;99.90;;;;;;5003786;28;20104;-66
2023/10/18 09:24:11;;;;;;;3.33;0.20;;;7.90;99.90;;;;;;5001521;28;20054;-62
2023/10/18 09:26:41;;;;;;;0.55;0.10;;;7.90;99.90;;;;;;5001226;28;20053;-61
2023/10/18 09:29:09;;;;;;;0.68;0.22;;;7.90;99.90;;;;;;4999083;28;20057;-63
2023/10/18 09:31:50;;;;;;;1.88;0.30;;;7.90;99.90;;;;;;5006441;28;20074;-61
2023/10/18 09:34:17;;;;;;;2.50;0.45;;;7.90;99.90;;;;;;4996032;28;20049;-62
2023/10/18 09:36:57;;;;;;;1.92;0.35;;;7.90;99.90;;;;;;4995241;28;20046;-68
2023/10/18 09:39:39;;;;;;;0.63;0.20;;;7.90;99.90;;;;;;5001669;28;20814;-63
2023/10/18 09:42:12;;;;;;;1.65;0.28;;;8.00;99.90;;;;;;4997026;28;20397;-62
2023/10/18 09:44:41;;;;;;;2.50;0.20;;;8.00;99.90;;;;;;4997773;28;20056;-62
2023/10/18 09:47:09;;;;;;;1.38;0.20;;;8.00;99.90;;;;;;5002659;28;20109;-61
2023/10/18 09:49:40;;;;;;;2.80;0.43;;;8.10;99.90;;;;;;4997799;28;20396;-63
2023/10/18 09:52:13;;;;;;;1.10;0.20;;;8.10;99.90;;;;;;4999696;28;20129;-61
2023/10/18 09:54:51;;;;;;;1.80;0.75;;;8.10;99.90;;;;;;5001308;28;20080;-62
2023/10/18 09:57:26;;;;;;;0.98;0.20;;;8.10;99.90;;;;;;4999523;28;20046;-63
2023/10/18 09:59:55;;;;;;;4.78;0.57;;;8.10;99.90;;;;;;4994905;28;20531;-62
2023/10/18 10:02:23;;;;;;;0.95;0.30;;;8.20;99.90;;;;;;5005425;28;20045;-63
2023/10/18 10:05:02;;;;;;;2.95;0.60;;;8.20;99.90;;;;;;5002191;28;20770;-65
2023/10/18 10:07:41;;;;;;;5.75;1.30;;;8.20;99.90;;;;;;5001170;28;20041;-64
2023/10/18 10:10:17;;;;;;;2.13;0.40;;;8.20;99.90;;;;;;5000460;28;20038;-62
2023/10/18 10:12:45;;;;;;;0.60;0.50;;;8.10;99.90;;;;;;4996938;28;20051;-61
2023/10/18 10:15:17;;;;;;;0.88;0.30;;;8.10;99.90;;;;;;5000148;28;20057;-61
2023/10/18 10:17:58;;;;;;;7.38;0.63;;;8.10;99.90;;;;;;5001402;28;20468;-63
2023/10/18 10:20:32;;;;;;;0.30;0.20;;;8.20;99.90;;;;;;5000415;28;20041;-64
2023/10/18 10:23:06;;;;;;;2.83;0.32;;;8.20;99.90;;;;;;5004077;28;20046;-61
2023/10/18 10:25:34;;;;;;;1.02;0.32;;;8.30;99.90;;;;;;4990814;28;20062;-69
2023/10/18 10:31:53;;;;;;;1.08;0.43;;;8.50;99.90;;;;;;4939475;29;20047;-65
2023/10/18 10:34:28;;;;;;;1.08;0.35;;;8.60;99.90;;;;;;4940175;28;20058;-61
2023/10/18 10:37:13;;;;;;;0.95;0.40;;;8.60;99.90;;;;;;4980501;28;20511;-68
2023/10/18 10:39:45;;;;;;;0.90;0.55;;;8.50;99.90;;;;;;4994317;28;20042;-61
2023/10/18 10:42:41;;;;;;;2.92;0.38;;;8.40;99.90;;;;;;4995498;28;20050;-64
2023/10/18 10:45:23;;;;;;;0.28;0.28;;;8.40;99.90;;;;;;5002111;28;20439;-62
2023/10/18 10:47:50;;;;;;;4.13;0.40;;;8.40;99.90;;;;;;5004645;28;20034;-65
2023/10/18 10:50:45;;;;;;;2.03;0.50;;;8.40;99.90;;;;;;5001435;28;20073;-67
2023/10/18 10:53:45;;;;;;;1.75;0.50;;;8.50;99.90;;;;;;5007669;28;20050;-63
2023/10/18 10:56:30;;;;;;;1.27;1.10;;;8.50;99.90;;;;;;5003481;28;20487;-63
2023/10/18 10:59:15;;;;;;;1.25;0.60;;;8.60;99.90;;;;;;5002636;28;20456;-66
2023/10/18 11:04:25;;;;;;;1.60;0.52;;;8.70;99.90;;;;;;5004427;28;20037;-61
2023/10/18 11:06:56;;;;;;;0.40;0.40;;;8.70;99.90;;;;;;5001941;28;20055;-65
2023/10/18 11:09:33;;;;;;;1.00;0.60;;;8.70;99.90;;;;;;5004904;28;20136;-62
2023/10/18 11:12:10;;;;;;;4.40;0.73;;;8.80;99.90;;;;;;5003461;28;20046;-68
2023/10/18 11:14:38;;;;;;;2.80;0.82;;;8.80;99.90;;;;;;5005382;28;20050;-64
2023/10/18 11:19:51;;;;;;;2.08;0.60;;;9.00;99.90;;;;;;5001836;28;20053;-61
2023/10/18 11:22:22;;;;;;;1.05;0.68;;;9.00;99.90;;;;;;5002200;28;20037;-63
2023/10/18 11:24:55;;;;;;;1.13;0.50;;;9.00;99.90;;;;;;5003661;28;20057;-62
2023/10/18 11:27:33;;;;;;;2.08;0.52;;;9.00;99.90;;;;;;5004488;28;20061;-63
2023/10/18 11:30:17;;;;;;;0.65;0.45;;;9.00;99.90;;;;;;5003903;28;20046;-63
2023/10/18 11:32:48;;;;;;;2.58;0.80;;;9.10;99.90;;;;;;5005747;28;20161;-62
2023/10/18 11:35:26;;;;;;;1.10;0.70;;;9.00;99.90;;;;;;5004769;28;20487;-66
2023/10/18 11:37:54;;;;;;;1.02;0.60;;;9.00;99.90;;;;;;5003439;28;20551;-61
2023/10/18 11:40:30;;;;;;;5.03;1.25;;;9.10;99.90;;;;;;5005814;28;20057;-61
2023/10/18 11:43:08;;;;;;;1.13;0.63;;;9.00;99.90;;;;;;5004502;28;20117;-61
2023/10/18 11:45:38;;;;;;;1.17;0.88;;;8.90;99.90;;;;;;5006233;28;20733;-61
2023/10/18 11:48:06;;;;;;;2.90;1.52;;;8.70;99.90;;;;;;5002462;28;20547;-60
2023/10/18 11:50:50;;;;;;;3.63;1.00;;;8.60;99.90;;;;;;5006896;28;20051;-61
2023/10/18 11:53:23;;;;;;;2.58;1.33;;;8.60;99.90;;;;;;5005311;28;20409;-61
2023/10/18 11:55:56;;;;;;;1.98;0.90;;;8.60;99.90;;;;;;4999593;28;20081;-60
2023/10/18 11:58:23;;;;;;;5.57;1.40;;;8.70;99.90;;;;;;5000381;28;20046;-61
2023/10/18 12:00:55;;;;;;;1.50;0.95;;;8.80;99.90;;;;;;5000752;28;20136;-62
2023/10/18 12:03:27;;;;;;;1.42;1.33;;;8.90;99.90;;;;;;5004985;28;20535;-62
2023/10/18 12:05:59;;;;;;;2.85;1.25;;;8.90;99.90;;;;;;4999679;28;20069;-61
2023/10/18 12:08:33;;;;;;;4.78;1.38;;;8.90;99.90;;;;;;5004043;28;20158;-61
2023/10/18 12:11:04;;;;;;;3.33;1.35;;;8.90;99.90;;;;;;4997995;28;20083;-66
2023/10/18 12:13:32;;;;;;;3.50;1.85;;;8.90;99.90;;;;;;5005230;28;20053;-62
2023/10/18 12:16:00;;;;;;;2.35;1.52;;;8.90;99.90;;;;;;4998443;28;20129;-64
2023/10/18 12:18:32;;;;;;;4.40;2.13;;;8.90;99.90;;;;;;4998472;28;20053;-66
2023/10/18 12:20:59;;;;;;;5.57;2.72;;;8.70;99.90;;;;;;5001262;28;20054;-64
2023/10/18 12:23:26;;;;;;;2.45;1.40;;;8.50;99.90;;;;;;5005091;28;20046;-62
2023/10/18 12:25:53;;;;;;;2.10;1.52;;;8.60;99.90;;;;;;4994946;28;20053;-61
2023/10/18 12:28:27;;;;;;;2.80;2.20;;;8.60;99.90;;;;;;4998727;28;20077;-67
2023/10/18 12:30:55;;;;;;;2.20;2.00;;;8.60;99.90;;;;;;4996961;28;20077;-61
2023/10/18 12:33:27;;;;;;;2.00;1.75;;;8.60;99.90;;;;;;5005048;28;20530;-61
2023/10/18 12:35:59;;;;;;;3.25;2.10;;;8.70;99.90;;;;;;4997764;28;20042;-61
2023/10/18 12:38:38;;;;;;;2.08;1.83;;;8.80;99.90;;;;;;4998017;28;20463;-63
2023/10/18 12:41:11;;;;;;;4.20;1.52;;;8.70;99.90;;;;;;4997095;28;20077;-61
2023/10/18 12:43:44;;;;;;;7.35;2.00;;;8.60;99.90;;;;;;4996534;28;20054;-65
2023/10/18 12:46:19;;;;;;;4.13;2.17;;;8.40;99.90;;;;;;5002996;28;20046;-64
2023/10/18 12:48:49;;;;;;;3.15;2.53;;;8.30;99.90;;;;;;5002927;28;20571;-61
2023/10/18 12:51:17;;;;;;;3.10;1.95;;;8.30;99.90;;;;;;4989521;28;20444;-61
2023/10/18 12:53:49;;;;;;;3.55;2.38;;;8.40;99.90;;;;;;5000425;28;20045;-62
2023/10/18 12:58:59;;;;;;;2.67;2.13;;;8.40;99.90;;;;;;5005589;28;20042;-62
2023/10/18 13:01:42;;;;;;;3.47;2.30;;;8.60;99.90;;;;;;5001846;28;20050;-63
2023/10/18 13:04:17;;;;;;;5.25;2.47;;;8.60;99.90;;;;;;5000314;28;20054;-63
2023/10/18 13:06:46;;;;;;;4.72;2.33;;;8.50;99.90;;;;;;5007532;28;20050;-66
2023/10/18 13:14:29;;;;;;;3.03;2.28;;;8.20;99.90;;;;;;5003477;28;20078;-62
2023/10/18 13:17:00;;;;;;;9.25;2.72;;;8.10;99.90;;;;;;5001554;28;20107;-61
2023/10/18 13:19:30;;;;;;;2.35;2.05;;;8.20;99.90;;;;;;4998311;28;20459;-63
2023/10/18 13:21:58;;;;;;;4.55;2.20;;;8.20;99.90;;;;;;4999238;28;20088;-61
2023/10/18 13:26:59;;;;;;;5.15;2.10;;;8.00;99.90;;;;;;5002062;28;20494;-62
2023/10/18 13:32:06;;;;;;;8.00;2.85;;;7.90;99.90;;;;;;5006230;28;20093;-61
2023/10/18 13:34:33;;;;;;;3.92;1.95;;;7.80;99.90;;;;;;4996864;28;20041;-64
2023/10/18 13:37:04;;;;;;;8.55;2.38;;;7.90;99.90;;;;;;5000381;28;20182;-62
2023/10/18 13:39:31;;;;;;;4.35;1.65;;;8.00;99.90;;;;;;5002054;28;20038;-63
2023/10/18 13:42:00;;;;;;;2.60;1.83;;;8.00;99.90;;;;;;4998592;28;20045;-64
2023/10/18 13:44:29;;;;;;;6.00;2.00;;;8.00;99.90;;;;;;5005077;28;20542;-66
2023/10/18 13:46:58;;;;;;;6.85;1.92;;;7.90;99.90;;;;;;5000749;28;20045;-61
2023/10/18 13:49:39;;;;;;;5.13;1.70;;;7.90;99.90;;;;;;4997344;28;20045;-61
2023/10/18 13:52:07;;;;;;;2.40;1.27;;;7.90;99.90;;;;;;5001853;28;20041;-63
2023/10/18 13:54:34;;;;;;;3.67;2.22;;;7.80;99.90;;;;;;5001925;28;20050;-66
2023/10/18 13:57:01;;;;;;;3.33;1.40;;;7.80;99.90;;;;;;5001895;28;20049;-61
2023/10/18 13:59:29;;;;;;;3.75;1.52;;;7.80;99.90;;;;;;5000668;28;20046;-61
2023/10/18 14:01:56;;;;;;;5.25;2.13;;;7.80;99.90;;;;;;5004668;28;20040;-61
2023/10/18 14:04:28;;;;;;;3.85;2.00;;;7.80;99.90;;;;;;5008393;28;20137;-63
2023/10/18 14:07:00;;;;;;;4.57;2.58;;;7.80;99.90;;;;;;5002065;28;20040;-62
2023/10/18 14:09:33;;;;;;;4.68;1.38;;;7.70;99.90;;;;;;4996860;28;20132;-66
2023/10/18 14:12:01;;;;;;;5.82;1.65;;;7.60;99.90;;;;;;5007543;28;20053;-64